createdAt,value
2023-04-16T00:01:00.257Z,46.30
2023-04-16T00:03:12.879Z,49.53
2023-04-16T00:05:21.779Z,58.72
2023-04-16T00:07:26.817Z,48.75
2023-04-16T00:09:33.998Z,47.55
2023-04-16T00:11:59.827Z,51.00
2023-04-16T00:14:04.992Z,55.63
2023-04-16T00:16:11.180Z,52.10
2023-04-16T00:18:17.759Z,60.03
2023-04-16T00:20:24.589Z,63.53
2023-04-16T00:22:36.435Z,63.55
2023-04-16T00:24:43.084Z,51.08
2023-04-16T00:26:56.957Z,66.53
2023-04-16T00:29:04.954Z,46.42
2023-04-16T00:31:13.381Z,55.58
2023-04-16T00:33:20.618Z,55.15
2023-04-16T00:35:28.161Z,52.90
2023-04-16T00:37:37.084Z,50.92
2023-04-16T00:39:43.802Z,50.17
2023-04-16T00:41:52.142Z,52.90
2023-04-16T00:44:19.264Z,56.28
2023-04-16T00:46:27.610Z,48.85
2023-04-16T00:48:38.950Z,48.88
2023-04-16T00:50:44.568Z,49.90
2023-04-16T00:52:54.826Z,47.83
2023-04-16T00:55:00.542Z,45.10
2023-04-16T00:57:07.210Z,42.95
2023-04-16T00:59:15.045Z,48.42
2023-04-16T01:01:37.453Z,50.30
2023-04-16T01:03:48.777Z,41.67
2023-04-16T01:05:54.985Z,45.25
2023-04-16T01:08:03.413Z,49.58
2023-04-16T01:10:10.161Z,42.45
2023-04-16T01:12:32.425Z,41.58
2023-04-16T01:14:40.168Z,41.05
2023-04-16T01:16:45.193Z,41.22
2023-04-16T01:18:53.768Z,36.50
2023-04-16T01:21:01.573Z,35.60
2023-04-16T01:23:06.637Z,37.65
2023-04-16T01:25:19.106Z,37.40
2023-04-16T01:27:24.286Z,35.47
2023-04-16T01:29:41.726Z,39.80
2023-04-16T01:31:51.046Z,38.13
2023-04-16T01:34:11.507Z,35.15
2023-04-16T01:36:46.654Z,40.15
2023-04-16T01:38:52.541Z,42.55
2023-04-16T01:41:02.251Z,41.25
2023-04-16T01:43:08.972Z,46.00
2023-04-16T01:45:15.028Z,45.90
2023-04-16T01:47:21.959Z,47.28
2023-04-16T01:49:27.177Z,55.00
2023-04-16T01:51:54.509Z,48.80
2023-04-16T01:54:02.284Z,50.90
2023-04-16T01:56:09.240Z,44.97
2023-04-16T01:58:15.222Z,49.83
2023-04-16T02:00:20.341Z,45.00
2023-04-16T02:02:40.745Z,42.13
2023-04-16T02:04:50.876Z,50.40
2023-04-16T02:06:58.778Z,44.42
2023-04-16T02:09:05.083Z,49.22
2023-04-16T02:11:10.962Z,57.75
2023-04-16T02:13:16.917Z,46.53
2023-04-16T02:15:27.660Z,47.97
2023-04-16T02:17:35.335Z,48.63
2023-04-16T02:19:47.490Z,52.45
2023-04-16T02:21:54.466Z,46.15
2023-04-16T02:24:21.812Z,50.95
2023-04-16T02:26:29.266Z,50.25
2023-04-16T02:28:39.035Z,58.35
2023-04-16T02:30:45.786Z,59.55
2023-04-16T02:32:55.731Z,52.40
2023-04-16T02:35:05.907Z,54.13
2023-04-16T02:37:12.098Z,56.17
2023-04-16T02:39:21.596Z,46.40
2023-04-16T02:41:46.264Z,61.03
2023-04-16T02:43:53.019Z,49.22
2023-04-16T02:46:00.783Z,52.25
2023-04-16T02:48:07.456Z,50.47
2023-04-16T02:50:13.704Z,46.95
2023-04-16T02:52:32.457Z,63.45
2023-04-16T02:54:40.291Z,55.70
2023-04-16T02:56:46.219Z,54.03
2023-04-16T02:58:51.581Z,56.15
2023-04-16T03:00:57.959Z,54.45
2023-04-16T03:03:03.034Z,56.25
2023-04-16T03:05:22.921Z,60.47
2023-04-16T03:07:31.571Z,48.17
2023-04-16T03:09:40.029Z,54.63
2023-04-16T03:11:46.170Z,51.03
2023-04-16T03:14:09.060Z,56.95
2023-04-16T03:16:14.109Z,56.67
2023-04-16T03:18:21.750Z,56.28
2023-04-16T03:20:32.379Z,50.17
2023-04-16T03:22:43.047Z,52.55
2023-04-16T03:24:51.489Z,56.08
2023-04-16T03:26:56.660Z,52.00
2023-04-16T03:29:12.172Z,55.15
2023-04-16T03:31:17.490Z,56.58
2023-04-16T03:33:24.358Z,57.42
2023-04-16T03:35:31.383Z,56.90
2023-04-16T03:37:40.925Z,58.72
2023-04-16T03:39:47.063Z,50.65
2023-04-16T03:41:59.846Z,51.97
2023-04-16T03:44:06.051Z,48.63
2023-04-16T03:46:13.965Z,52.78
2023-04-16T03:48:20.372Z,47.15
2023-04-16T03:50:28.582Z,48.67
2023-04-16T03:54:46.463Z,50.83
2023-04-16T03:57:14.064Z,50.33
2023-04-16T03:59:21.031Z,53.08
2023-04-16T04:01:37.857Z,51.65
2023-04-16T04:03:47.233Z,52.10
2023-04-16T04:05:55.908Z,53.85
2023-04-16T04:08:07.150Z,58.85
2023-04-16T04:10:15.841Z,58.17
2023-04-16T04:12:30.771Z,57.00
2023-04-16T04:14:39.925Z,52.15
2023-04-16T04:16:45.796Z,57.72
2023-04-16T04:18:55.757Z,53.38
2023-04-16T04:21:01.825Z,57.63
2023-04-16T04:23:08.654Z,58.97
2023-04-16T04:25:15.663Z,62.67
2023-04-16T04:27:23.339Z,55.63
2023-04-16T04:29:36.693Z,55.50
2023-04-16T04:31:47.741Z,63.40
2023-04-16T04:33:54.352Z,67.43
2023-04-16T04:36:02.256Z,66.25
2023-04-16T04:38:10.569Z,62.80
2023-04-16T04:40:15.835Z,64.00
2023-04-16T04:42:55.114Z,73.57
2023-04-16T04:45:02.926Z,75.47
2023-04-16T04:47:10.954Z,68.45
2023-04-16T04:49:16.037Z,64.35
2023-04-16T04:51:43.134Z,63.45
2023-04-16T04:53:52.059Z,61.67
2023-04-16T04:56:05.475Z,63.03
2023-04-16T04:58:21.695Z,54.15
2023-04-16T05:02:43.318Z,53.45
2023-04-16T05:04:51.773Z,56.63
2023-04-16T05:06:57.336Z,52.90
2023-04-16T05:09:06.567Z,55.90
2023-04-16T05:11:13.446Z,60.95
2023-04-16T05:13:21.085Z,59.30
2023-04-16T05:17:31.605Z,61.97
2023-04-16T05:19:40.271Z,53.97
2023-04-16T05:21:53.557Z,67.47
2023-04-16T05:23:58.555Z,57.33
2023-04-16T05:26:05.848Z,57.90
2023-04-16T05:28:11.193Z,54.50
2023-04-16T05:30:22.115Z,54.13
2023-04-16T05:32:37.714Z,53.42
2023-04-16T05:34:42.758Z,54.83
2023-04-16T05:36:50.510Z,53.83
2023-04-16T05:38:55.751Z,55.10
2023-04-16T05:41:01.923Z,48.97
2023-04-16T05:43:07.532Z,46.45
2023-04-16T05:45:20.529Z,51.08
2023-04-16T05:47:25.834Z,46.17
2023-04-16T05:49:30.999Z,57.35
2023-04-16T05:51:58.006Z,46.72
2023-04-16T05:54:02.997Z,45.30
2023-04-16T05:56:09.746Z,46.92
2023-04-16T05:58:17.064Z,42.17
2023-04-16T06:00:27.318Z,41.22
2023-04-16T06:02:36.787Z,40.38
2023-04-16T06:04:42.106Z,39.15
2023-04-16T06:06:47.148Z,35.00
2023-04-16T06:08:54.337Z,39.83
2023-04-16T06:10:59.409Z,35.00
2023-04-16T06:13:05.966Z,36.75
2023-04-16T06:15:20.476Z,35.58
2023-04-16T06:17:28.167Z,34.92
2023-04-16T06:19:33.243Z,34.70
2023-04-16T06:21:59.673Z,39.90
2023-04-16T06:24:04.867Z,36.17
2023-04-16T06:26:10.891Z,33.10
2023-04-16T06:28:16.370Z,36.40
2023-04-16T06:30:22.250Z,33.55
2023-04-16T06:32:37.342Z,30.48
2023-04-16T06:34:42.407Z,37.97
2023-04-16T06:36:49.645Z,34.10
2023-04-16T06:38:54.926Z,33.80
2023-04-16T06:40:59.921Z,31.17
2023-04-16T06:43:24.051Z,31.35
2023-04-16T06:45:29.081Z,28.27
2023-04-16T06:47:39.244Z,27.85
2023-04-16T06:49:46.823Z,27.45
2023-04-16T06:51:51.929Z,27.52
2023-04-16T06:53:56.950Z,28.90
2023-04-16T06:56:02.891Z,31.02
2023-04-16T06:58:13.224Z,30.52
2023-04-16T07:00:18.626Z,24.95
2023-04-16T07:02:41.251Z,29.67
2023-04-16T07:04:46.407Z,26.42
2023-04-16T07:06:51.692Z,25.00
2023-04-16T07:08:57.218Z,25.20
2023-04-16T07:11:06.289Z,24.90
2023-04-16T07:13:19.204Z,25.85
2023-04-16T07:15:26.110Z,31.25
2023-04-16T07:17:31.463Z,23.50
2023-04-16T07:19:58.930Z,25.58
2023-04-16T07:22:05.041Z,28.10
2023-04-16T07:24:10.362Z,25.63
2023-04-16T07:26:15.682Z,28.83
2023-04-16T07:28:21.015Z,29.55
2023-04-16T07:30:39.081Z,29.33
2023-04-16T07:32:50.236Z,29.42
2023-04-16T07:34:59.503Z,30.20
2023-04-16T07:37:04.807Z,28.15
2023-04-16T07:39:13.391Z,28.50
2023-04-16T07:41:30.167Z,28.25
2023-04-16T07:43:35.980Z,27.95
2023-04-16T07:45:42.437Z,26.50
2023-04-16T07:47:48.219Z,29.98
2023-04-16T07:49:55.248Z,30.55
2023-04-16T07:52:16.028Z,29.75
2023-04-16T07:54:21.152Z,30.73
2023-04-16T07:56:26.172Z,28.05
2023-04-16T07:58:32.005Z,31.60
2023-04-16T08:00:41.377Z,31.17
2023-04-16T08:02:47.154Z,35.78
2023-04-16T08:04:52.326Z,32.85
2023-04-16T08:06:59.761Z,31.42
2023-04-16T08:09:07.500Z,36.58
2023-04-16T08:13:21.167Z,37.85
2023-04-16T08:15:26.781Z,36.83
2023-04-16T08:17:34.621Z,38.95
2023-04-16T08:21:44.580Z,37.25
2023-04-16T08:23:59.255Z,34.95
2023-04-16T08:26:07.058Z,35.85
2023-04-16T08:28:13.257Z,40.35
2023-04-16T08:30:20.938Z,33.72
2023-04-16T08:32:33.244Z,30.98
2023-04-16T08:34:38.543Z,29.58
2023-04-16T08:36:44.048Z,34.03
2023-04-16T08:38:55.006Z,33.30
2023-04-16T08:41:01.669Z,28.83
2023-04-16T08:43:14.514Z,31.80
2023-04-16T08:45:24.013Z,27.52
2023-04-16T08:47:30.396Z,30.58
2023-04-16T08:49:46.268Z,25.38
2023-04-16T08:51:55.064Z,25.15
2023-04-16T08:54:12.378Z,29.70
2023-04-16T08:56:18.600Z,25.67
2023-04-16T08:58:36.859Z,25.90
2023-04-16T09:00:43.835Z,23.85
2023-04-16T09:02:50.535Z,27.02
2023-04-16T09:04:58.760Z,23.30
2023-04-16T09:07:07.463Z,27.55
2023-04-16T09:09:19.226Z,29.30
2023-04-16T09:11:35.992Z,21.30
2023-04-16T09:13:43.718Z,21.95
2023-04-16T09:15:56.975Z,24.17
2023-04-16T09:18:02.151Z,25.92
2023-04-16T09:20:11.201Z,25.80
2023-04-16T09:22:18.649Z,23.90
2023-04-16T09:24:24.718Z,29.40
2023-04-16T09:26:31.317Z,25.27
2023-04-16T09:28:47.137Z,23.10
2023-04-16T09:30:53.037Z,29.08
2023-04-16T09:33:22.937Z,24.42
2023-04-16T09:35:33.113Z,28.88
2023-04-16T09:37:38.116Z,26.98
2023-04-16T09:39:48.342Z,25.83
2023-04-16T09:41:57.082Z,27.85
2023-04-16T09:44:07.111Z,24.70
2023-04-16T09:46:15.403Z,28.60
2023-04-16T09:50:36.441Z,26.67
2023-04-16T09:53:05.312Z,26.90
2023-04-16T09:55:12.833Z,27.40
2023-04-16T09:57:18.639Z,26.02
2023-04-16T09:59:27.385Z,24.70
2023-04-16T10:01:41.841Z,28.15
2023-04-16T10:03:53.961Z,27.15
2023-04-16T10:06:00.958Z,25.33
2023-04-16T10:08:18.859Z,26.30
2023-04-16T10:10:23.960Z,27.73
2023-04-16T10:12:43.857Z,25.60
2023-04-16T10:14:53.905Z,23.98
2023-04-16T10:17:03.347Z,29.10
2023-04-16T10:19:14.676Z,27.27
2023-04-16T10:21:34.539Z,25.95
2023-04-16T10:23:41.097Z,25.58
2023-04-16T10:25:47.261Z,29.70
2023-04-16T10:27:53.617Z,29.75
2023-04-16T10:30:04.756Z,29.38
2023-04-16T10:32:11.165Z,29.80
2023-04-16T10:34:21.266Z,26.20
2023-04-16T10:36:29.477Z,27.63
2023-04-16T10:38:43.923Z,22.55
2023-04-16T10:40:50.336Z,25.10
2023-04-16T10:43:03.994Z,21.38
2023-04-16T10:45:14.973Z,23.85
2023-04-16T10:47:22.155Z,19.77
2023-04-16T10:49:28.983Z,19.98
2023-04-16T10:51:46.402Z,19.27
2023-04-16T10:53:51.748Z,19.58
2023-04-16T10:56:18.522Z,19.45
2023-04-16T10:58:45.973Z,19.55
2023-04-16T11:03:03.818Z,18.42
2023-04-16T11:05:11.238Z,21.15
2023-04-16T11:07:23.658Z,20.60
2023-04-16T11:10:08.334Z,18.45
2023-04-16T11:12:18.907Z,19.30
2023-04-16T11:14:26.641Z,17.70
2023-04-16T11:16:35.200Z,23.13
2023-04-16T11:18:51.489Z,17.83
2023-04-16T11:20:58.692Z,18.00
2023-04-16T11:23:05.661Z,17.75
2023-04-16T11:25:12.001Z,16.77
2023-04-16T11:27:19.696Z,16.10
2023-04-16T11:29:24.716Z,15.82
2023-04-16T11:31:36.216Z,16.85
2023-04-16T11:33:42.463Z,16.42
2023-04-16T11:35:47.521Z,16.83
2023-04-16T11:37:59.783Z,14.57
2023-04-16T11:40:09.761Z,12.90
2023-04-16T11:42:21.659Z,16.55
2023-04-16T11:44:33.535Z,14.77
2023-04-16T11:46:44.690Z,14.95
2023-04-16T11:48:52.042Z,12.52
2023-04-16T11:51:01.072Z,14.02
2023-04-16T11:53:08.950Z,12.90
2023-04-16T11:55:18.227Z,12.73
2023-04-16T11:59:37.168Z,14.18
2023-04-16T12:02:04.792Z,13.33
2023-04-16T12:04:11.191Z,12.90
2023-04-16T12:06:16.559Z,12.95
2023-04-16T12:08:34.416Z,11.27
2023-04-16T12:10:55.453Z,12.40
2023-04-16T12:13:19.407Z,15.88
2023-04-16T12:15:51.621Z,11.07
2023-04-16T12:18:11.442Z,11.15
2023-04-16T12:20:21.398Z,12.85
2023-04-16T12:22:42.504Z,12.25
2023-04-16T12:24:47.564Z,13.38
2023-04-16T12:27:02.473Z,11.68
2023-04-16T12:29:29.169Z,11.25
2023-04-16T12:31:43.533Z,11.93
2023-04-16T12:34:08.431Z,11.07
2023-04-16T12:36:29.139Z,10.85
2023-04-16T12:38:34.673Z,9.48
2023-04-16T12:40:41.497Z,14.07
2023-04-16T12:43:03.193Z,10.50
2023-04-16T12:45:10.581Z,12.02
2023-04-16T12:47:15.913Z,9.15
2023-04-16T12:49:31.020Z,9.20
2023-04-16T12:51:46.291Z,10.55
2023-04-16T12:53:53.423Z,8.73
2023-04-16T12:55:59.604Z,9.40
2023-04-16T12:58:04.757Z,9.10
2023-04-16T13:00:11.730Z,9.35
2023-04-16T13:02:28.660Z,8.37
2023-04-16T13:04:38.801Z,9.35
2023-04-16T13:06:44.045Z,9.02
2023-04-16T13:08:49.383Z,10.13
2023-04-16T13:10:54.414Z,11.10
2023-04-16T13:12:59.417Z,9.30
2023-04-16T13:15:12.645Z,10.23
2023-04-16T13:17:18.139Z,9.57
2023-04-16T13:19:23.220Z,10.60
2023-04-16T13:21:39.204Z,9.65
2023-04-16T13:23:44.639Z,8.75
2023-04-16T13:25:52.062Z,10.70
2023-04-16T13:30:02.660Z,10.00
2023-04-16T13:32:09.610Z,10.45
2023-04-16T13:34:14.974Z,10.57
2023-04-16T13:36:21.139Z,10.10
2023-04-16T13:38:29.064Z,11.43
2023-04-16T13:42:46.601Z,13.45
2023-04-16T13:44:54.494Z,12.82
2023-04-16T13:47:01.949Z,14.10
2023-04-16T13:49:07.040Z,14.38
2023-04-16T13:51:18.833Z,13.38
2023-04-16T13:53:23.885Z,15.38
2023-04-16T13:55:33.293Z,13.93
2023-04-16T13:57:38.381Z,14.45
2023-04-16T13:59:46.547Z,15.45
2023-04-16T14:04:12.874Z,15.82
2023-04-16T14:06:18.370Z,16.25
2023-04-16T14:08:25.269Z,15.35
2023-04-16T14:10:35.112Z,17.58
2023-04-16T14:12:48.192Z,14.98
2023-04-16T14:14:53.478Z,16.13
2023-04-16T14:16:59.011Z,16.40
2023-04-16T14:19:08.989Z,15.20
2023-04-16T14:21:19.042Z,19.15
2023-04-16T14:23:24.105Z,15.57
2023-04-16T14:25:29.664Z,17.33
2023-04-16T14:27:37.864Z,16.65
2023-04-16T14:29:44.518Z,16.17
2023-04-16T14:31:53.953Z,18.25
2023-04-16T14:34:01.470Z,16.67
2023-04-16T14:36:19.564Z,15.20
2023-04-16T14:38:24.681Z,16.23
2023-04-16T14:40:30.331Z,18.20
2023-04-16T14:42:44.736Z,15.38
2023-04-16T14:44:49.792Z,14.63
2023-04-16T14:46:55.712Z,14.50
2023-04-16T14:49:01.428Z,15.02
2023-04-16T14:51:12.057Z,15.77
2023-04-16T14:53:17.129Z,14.32
2023-04-16T14:55:26.011Z,17.42
2023-04-16T14:57:33.552Z,17.00
2023-04-16T14:59:42.873Z,18.75
2023-04-16T15:01:48.669Z,19.25
2023-04-16T15:03:57.403Z,18.10
2023-04-16T15:06:03.174Z,15.63
2023-04-16T15:08:12.898Z,18.75
2023-04-16T15:10:18.166Z,17.45
2023-04-16T15:12:26.888Z,17.83
2023-04-16T15:14:32.290Z,17.90
2023-04-16T15:16:41.573Z,18.73
2023-04-16T15:18:46.670Z,19.98
2023-04-16T15:20:52.848Z,18.45
2023-04-16T15:23:01.843Z,17.98
2023-04-16T15:25:07.780Z,18.75
2023-04-16T15:27:20.274Z,19.83
2023-04-16T15:29:25.680Z,17.85
2023-04-16T15:31:36.543Z,21.13
2023-04-16T15:33:44.174Z,24.42
2023-04-16T15:35:57.380Z,19.10
2023-04-16T15:38:02.395Z,19.75
2023-04-16T15:40:10.872Z,18.20
2023-04-16T15:42:16.463Z,19.35
2023-04-16T15:44:21.724Z,18.10
2023-04-16T15:46:28.475Z,18.20
2023-04-16T15:48:41.199Z,19.00
2023-04-16T15:51:00.989Z,17.55
2023-04-16T15:53:07.820Z,17.10
2023-04-16T15:55:13.138Z,20.30
2023-04-16T15:57:21.695Z,19.88
2023-04-16T15:59:27.152Z,19.45
2023-04-16T16:01:37.341Z,21.67
2023-04-16T16:03:44.302Z,18.95
2023-04-16T16:05:54.696Z,19.60
2023-04-16T16:08:01.877Z,18.42
2023-04-16T16:10:08.759Z,16.50
2023-04-16T16:12:13.794Z,20.25
2023-04-16T16:14:18.808Z,17.75
2023-04-16T16:16:24.679Z,20.92
2023-04-16T16:18:33.593Z,19.88
2023-04-16T16:20:40.672Z,18.23
2023-04-16T16:22:53.141Z,19.83
2023-04-16T16:24:59.346Z,18.73
2023-04-16T16:27:05.364Z,17.90
2023-04-16T16:29:10.936Z,19.73
2023-04-16T16:31:29.777Z,19.10
2023-04-16T16:33:37.366Z,18.63
2023-04-16T16:35:46.514Z,20.92
2023-04-16T16:37:57.602Z,18.35
2023-04-16T16:40:04.049Z,19.95
2023-04-16T16:42:10.065Z,23.38
2023-04-16T16:44:16.453Z,19.15
2023-04-16T16:46:21.602Z,19.08
2023-04-16T16:48:37.309Z,17.25
2023-04-16T16:50:42.346Z,18.75
2023-04-16T16:52:55.847Z,22.88
2023-04-16T16:55:01.475Z,18.25
2023-04-16T16:57:08.624Z,19.17
2023-04-16T16:59:15.626Z,18.42
2023-04-16T17:01:42.813Z,15.95
2023-04-16T17:03:48.328Z,18.33
2023-04-16T17:05:54.629Z,19.75
2023-04-16T17:08:02.839Z,17.98
2023-04-16T17:12:20.772Z,18.73
2023-04-16T17:14:25.927Z,17.27
2023-04-16T17:16:32.451Z,18.52
2023-04-16T17:18:38.436Z,17.35
2023-04-16T17:20:46.149Z,18.15
2023-04-16T17:22:51.524Z,19.35
2023-04-16T17:25:01.254Z,19.02
2023-04-16T17:27:06.871Z,16.63
2023-04-16T17:29:11.889Z,18.20
2023-04-16T17:31:18.772Z,17.48
2023-04-16T17:33:26.060Z,19.57
2023-04-16T17:35:31.381Z,20.38
2023-04-16T17:37:37.359Z,17.02
2023-04-16T17:39:43.360Z,17.63
2023-04-16T17:41:54.848Z,15.82
2023-04-16T17:43:59.854Z,17.05
2023-04-16T17:46:17.464Z,19.08
2023-04-16T17:48:22.762Z,18.20
2023-04-16T17:50:29.862Z,18.27
2023-04-16T17:52:40.112Z,19.50
2023-04-16T17:54:45.539Z,22.92
2023-04-16T17:56:53.118Z,17.45
2023-04-16T17:58:58.180Z,17.17
2023-04-16T18:01:05.352Z,19.20
2023-04-16T18:03:11.702Z,16.20
2023-04-16T18:05:19.132Z,15.70
2023-04-16T18:07:25.595Z,19.98
2023-04-16T18:09:31.598Z,14.80
2023-04-16T18:11:45.351Z,16.10
2023-04-16T18:13:54.014Z,16.25
2023-04-16T18:15:59.042Z,16.17
2023-04-16T18:18:04.122Z,16.38
2023-04-16T18:20:16.954Z,17.98
2023-04-16T18:22:27.032Z,17.45
2023-04-16T18:24:36.672Z,16.60
2023-04-16T18:26:41.962Z,16.30
2023-04-16T18:28:49.533Z,17.27
2023-04-16T18:30:59.102Z,16.48
2023-04-16T18:35:13.687Z,17.65
2023-04-16T18:37:20.878Z,15.70
2023-04-16T18:39:29.188Z,14.55
2023-04-16T18:41:40.582Z,15.27
2023-04-16T18:43:46.189Z,16.83
2023-04-16T18:45:51.446Z,13.82
2023-04-16T18:48:02.961Z,16.50
2023-04-16T18:50:10.658Z,15.45
2023-04-16T18:54:27.726Z,14.80
2023-04-16T18:56:33.488Z,15.48
2023-04-16T18:58:38.705Z,16.38
2023-04-16T19:00:43.766Z,17.77
2023-04-16T19:02:49.175Z,18.65
2023-04-16T19:05:03.444Z,15.90
2023-04-16T19:07:08.471Z,14.70
2023-04-16T19:09:13.963Z,15.80
2023-04-16T19:11:26.461Z,15.88
2023-04-16T19:13:32.692Z,15.75
2023-04-16T19:15:37.968Z,14.20
2023-04-16T19:17:45.037Z,15.55
2023-04-16T19:19:50.700Z,15.60
2023-04-16T19:21:58.591Z,15.05
2023-04-16T19:26:11.940Z,14.48
2023-04-16T19:28:17.173Z,15.00
2023-04-16T19:30:22.242Z,17.02
2023-04-16T19:32:36.548Z,15.05
2023-04-16T19:34:42.253Z,20.38
2023-04-16T19:36:48.780Z,15.05
2023-04-16T19:38:59.050Z,17.00
2023-04-16T19:41:04.681Z,19.70
2023-04-16T19:43:12.163Z,16.80
2023-04-16T19:45:18.476Z,17.60
2023-04-16T19:47:40.848Z,17.80
2023-04-16T19:49:48.481Z,16.50
2023-04-16T19:52:03.388Z,21.42
2023-04-16T19:54:11.015Z,20.35
2023-04-16T19:56:17.742Z,19.40
2023-04-16T19:58:22.727Z,18.38
2023-04-16T20:00:27.861Z,20.05
2023-04-16T20:02:49.691Z,19.58
2023-04-16T20:04:55.899Z,21.73
2023-04-16T20:07:01.209Z,22.85
2023-04-16T20:09:07.506Z,21.08
2023-04-16T20:11:30.356Z,21.67
2023-04-16T20:13:37.724Z,24.25
2023-04-16T20:15:42.877Z,22.90
2023-04-16T20:17:48.413Z,24.60
2023-04-16T20:19:53.612Z,22.38
2023-04-16T20:21:58.635Z,22.67
2023-04-16T20:24:10.694Z,21.00
2023-04-16T20:26:20.272Z,23.15
2023-04-16T20:28:26.801Z,22.60
2023-04-16T20:30:38.884Z,26.55
2023-04-16T20:32:47.750Z,21.23
2023-04-16T20:34:52.994Z,22.83
2023-04-16T20:36:58.149Z,24.77
2023-04-16T20:39:07.257Z,23.75
2023-04-16T20:41:25.345Z,23.80
2023-04-16T20:45:38.209Z,26.83
2023-04-16T20:47:43.553Z,23.02
2023-04-16T20:49:55.089Z,22.15
2023-04-16T20:52:02.508Z,23.88
2023-04-16T20:54:11.398Z,25.10
2023-04-16T20:56:23.525Z,21.63
2023-04-16T20:58:28.858Z,24.23
2023-04-16T21:00:39.063Z,23.92
2023-04-16T21:02:47.895Z,24.48
2023-04-16T21:04:53.056Z,26.67
2023-04-16T21:07:03.541Z,23.40
2023-04-16T21:09:08.826Z,24.92
2023-04-16T21:11:18.781Z,22.73
2023-04-16T21:13:27.123Z,23.77
2023-04-16T21:15:34.846Z,23.40
2023-04-16T21:17:40.282Z,25.58
2023-04-16T21:19:45.773Z,27.02
2023-04-16T21:21:50.877Z,24.73
2023-04-16T21:24:03.729Z,27.73
2023-04-16T21:26:09.343Z,25.08
2023-04-16T21:28:19.507Z,26.13
2023-04-16T21:30:27.262Z,26.23
2023-04-16T21:32:43.164Z,22.83
2023-04-16T21:34:50.307Z,26.08
2023-04-16T21:36:55.855Z,23.27
2023-04-16T21:39:04.627Z,26.08
2023-04-16T21:41:09.750Z,26.27
2023-04-16T21:43:14.810Z,26.67
2023-04-16T21:45:38.045Z,27.85
2023-04-16T21:47:43.281Z,23.98
2023-04-16T21:49:48.386Z,24.25
2023-04-16T21:51:59.383Z,24.45
2023-04-16T21:54:06.551Z,23.55
2023-04-16T21:56:11.652Z,26.27
2023-04-16T21:58:17.223Z,23.15
2023-04-16T22:00:30.583Z,23.40
2023-04-16T22:02:43.250Z,27.55
2023-04-16T22:04:48.826Z,23.15
2023-04-16T22:06:57.737Z,25.75
2023-04-16T22:09:03.063Z,26.55
2023-04-16T22:11:08.068Z,25.90
2023-04-16T22:13:15.200Z,25.60
2023-04-16T22:15:22.079Z,27.75
2023-04-16T22:17:27.814Z,28.30
2023-04-16T22:19:37.363Z,23.75
2023-04-16T22:21:44.674Z,24.02
2023-04-16T22:23:52.886Z,24.23
2023-04-16T22:26:02.757Z,24.67
2023-04-16T22:28:07.990Z,28.20
2023-04-16T22:30:15.319Z,24.67
2023-04-16T22:32:23.333Z,26.77
2023-04-16T22:34:28.524Z,29.60
2023-04-16T22:36:36.093Z,24.67
2023-04-16T22:38:43.467Z,23.58
2023-04-16T22:40:51.029Z,25.23
2023-04-16T22:42:56.265Z,25.23
2023-04-16T22:45:10.330Z,21.83
2023-04-16T22:47:17.818Z,25.42
2023-04-16T22:49:24.537Z,29.58
2023-04-16T22:51:40.606Z,25.45
2023-04-16T22:53:46.002Z,29.33
2023-04-16T22:55:51.274Z,27.38
2023-04-16T22:57:58.846Z,26.15
2023-04-16T23:00:06.236Z,27.65
2023-04-16T23:02:30.036Z,25.00
2023-04-16T23:04:35.648Z,25.77
2023-04-16T23:06:47.407Z,29.50
2023-04-16T23:08:52.704Z,25.63
2023-04-16T23:10:57.947Z,30.65
2023-04-16T23:13:03.405Z,27.00
2023-04-16T23:15:11.620Z,27.73
2023-04-16T23:17:16.955Z,26.10
2023-04-16T23:19:26.667Z,29.80
2023-04-16T23:21:36.146Z,25.80
2023-04-16T23:23:43.964Z,28.55
2023-04-16T23:25:49.017Z,24.58
2023-04-16T23:27:55.729Z,27.40
2023-04-16T23:30:02.380Z,27.70
2023-04-16T23:32:08.912Z,25.88
2023-04-16T23:34:17.002Z,27.75
2023-04-16T23:36:21.972Z,30.52
2023-04-16T23:38:27.568Z,27.33
2023-04-16T23:40:35.162Z,27.25
2023-04-16T23:42:49.883Z,26.67
2023-04-16T23:44:54.889Z,27.92
2023-04-16T23:47:00.259Z,26.75
2023-04-16T23:49:05.547Z,28.02
2023-04-16T23:51:19.536Z,32.10
2023-04-16T23:53:27.565Z,28.45
2023-04-16T23:55:36.781Z,31.08
2023-04-16T23:57:44.854Z,31.67
2023-04-16T23:59:50.405Z,25.17
